createdAt,value
2022-11-27T00:01:47.525Z,96.10
2022-11-27T00:04:14.111Z,95.90
2022-11-27T00:06:41.154Z,95.90
2022-11-27T00:09:10.470Z,95.70
2022-11-27T00:11:39.337Z,95.70
2022-11-27T00:14:06.355Z,95.60
2022-11-27T00:16:33.294Z,95.50
2022-11-27T00:18:59.851Z,95.50
2022-11-27T00:21:27.924Z,95.00
2022-11-27T00:23:55.210Z,94.80
2022-11-27T00:26:22.018Z,94.60
2022-11-27T00:28:48.976Z,94.10
2022-11-27T00:31:19.731Z,94.00
2022-11-27T00:33:46.437Z,94.00
2022-11-27T00:36:13.554Z,94.10
2022-11-27T00:38:40.133Z,94.10
2022-11-27T00:41:07.760Z,94.00
2022-11-27T00:43:43.582Z,94.20
2022-11-27T00:46:14.947Z,93.80
2022-11-27T00:48:41.982Z,93.10
2022-11-27T00:51:10.049Z,93.40
2022-11-27T00:53:36.613Z,93.30
2022-11-27T00:56:03.194Z,93.20
2022-11-27T00:58:30.656Z,93.10
2022-11-27T01:00:58.123Z,93.30
2022-11-27T01:03:24.960Z,93.30
2022-11-27T01:05:51.824Z,93.60
2022-11-27T01:08:19.379Z,93.90
2022-11-27T01:10:54.553Z,94.00
2022-11-27T01:13:29.558Z,94.10
2022-11-27T01:16:03.803Z,93.90
2022-11-27T01:18:30.529Z,93.70
2022-11-27T01:20:57.104Z,93.90
2022-11-27T01:23:24.062Z,94.00
2022-11-27T01:25:53.275Z,94.00
2022-11-27T01:28:20.794Z,94.30
2022-11-27T01:30:47.716Z,94.10
2022-11-27T01:33:14.379Z,94.00
2022-11-27T01:35:40.963Z,93.90
2022-11-27T01:38:07.812Z,94.30
2022-11-27T01:40:34.395Z,94.30
2022-11-27T01:43:00.990Z,94.30
2022-11-27T01:45:27.568Z,94.30
2022-11-27T01:47:55.938Z,94.30
2022-11-27T01:50:24.776Z,94.30
2022-11-27T01:52:53.841Z,94.30
2022-11-27T01:55:27.475Z,93.80
2022-11-27T01:57:57.882Z,93.60
2022-11-27T02:00:24.674Z,93.60
2022-11-27T02:02:51.241Z,93.60
2022-11-27T02:05:19.771Z,93.40
2022-11-27T02:07:47.096Z,93.60
2022-11-27T02:10:14.347Z,93.10
2022-11-27T02:12:54.176Z,93.20
2022-11-27T02:15:25.027Z,93.10
2022-11-27T02:17:54.328Z,93.00
2022-11-27T02:20:23.956Z,92.50
2022-11-27T02:22:53.717Z,92.50
2022-11-27T02:25:22.818Z,92.80
2022-11-27T02:27:53.360Z,92.70
2022-11-27T02:30:20.182Z,92.50
2022-11-27T02:32:51.076Z,92.50
2022-11-27T02:35:26.337Z,92.50
2022-11-27T02:37:56.640Z,92.80
2022-11-27T02:40:29.316Z,92.90
2022-11-27T02:42:58.412Z,93.20
2022-11-27T02:45:28.597Z,93.20
2022-11-27T02:47:56.747Z,93.20
2022-11-27T02:50:25.050Z,93.20
2022-11-27T02:52:54.202Z,93.70
2022-11-27T02:55:23.136Z,93.60
2022-11-27T02:57:51.082Z,93.60
2022-11-27T03:00:17.892Z,93.30
2022-11-27T03:02:46.808Z,92.80
2022-11-27T03:05:16.466Z,92.50
2022-11-27T03:07:48.964Z,92.60
2022-11-27T03:10:19.186Z,92.50
2022-11-27T03:12:46.638Z,92.50
2022-11-27T03:15:13.331Z,92.50
2022-11-27T03:17:46.104Z,92.60
2022-11-27T03:20:24.261Z,92.50
2022-11-27T03:22:52.446Z,92.70
2022-11-27T03:25:19.035Z,93.10
2022-11-27T03:27:49.956Z,93.30
2022-11-27T03:30:16.499Z,93.20
2022-11-27T03:32:43.086Z,93.20
2022-11-27T03:35:11.221Z,93.20
2022-11-27T03:37:38.042Z,93.20
2022-11-27T03:40:05.449Z,93.40
2022-11-27T03:42:32.063Z,93.30
2022-11-27T03:45:07.902Z,93.40
2022-11-27T03:47:34.479Z,93.50
2022-11-27T03:50:07.453Z,93.60
2022-11-27T03:52:48.022Z,93.70
2022-11-27T03:55:14.556Z,94.00
2022-11-27T03:57:45.248Z,93.80
2022-11-27T04:00:12.181Z,93.60
2022-11-27T04:02:40.724Z,93.50
2022-11-27T04:05:07.568Z,93.30
2022-11-27T04:07:34.157Z,93.20
2022-11-27T04:10:00.759Z,93.20
2022-11-27T04:12:27.297Z,93.10
2022-11-27T04:14:53.879Z,93.40
2022-11-27T04:17:20.601Z,93.00
2022-11-27T04:19:47.095Z,92.40
2022-11-27T04:22:13.656Z,92.40
2022-11-27T04:24:40.597Z,92.40
2022-11-27T04:27:07.324Z,92.00
2022-11-27T04:29:33.891Z,91.70
2022-11-27T04:32:00.438Z,91.50
2022-11-27T04:34:26.937Z,91.60
2022-11-27T04:36:53.452Z,91.80
2022-11-27T04:39:21.704Z,91.90
2022-11-27T04:41:49.014Z,92.00
2022-11-27T04:44:15.563Z,92.40
2022-11-27T04:46:42.438Z,92.40
2022-11-27T04:49:09.849Z,92.40
2022-11-27T04:51:36.585Z,92.00
2022-11-27T04:54:03.163Z,92.10
2022-11-27T04:56:29.738Z,92.30
2022-11-27T04:58:56.299Z,92.00
2022-11-27T05:01:22.906Z,92.40
2022-11-27T05:03:49.447Z,91.90
2022-11-27T05:06:16.192Z,92.60
2022-11-27T05:08:42.717Z,92.60
2022-11-27T05:11:13.382Z,92.70
2022-11-27T05:13:40.117Z,92.90
2022-11-27T05:16:06.952Z,92.80
2022-11-27T05:18:33.819Z,93.10
2022-11-27T05:21:04.914Z,93.40
2022-11-27T05:23:31.975Z,93.30
2022-11-27T05:25:58.772Z,93.40
2022-11-27T05:28:27.029Z,93.70
2022-11-27T05:30:54.093Z,93.80
2022-11-27T05:33:20.821Z,93.80
2022-11-27T05:35:47.421Z,93.80
2022-11-27T05:38:14.068Z,94.00
2022-11-27T05:40:40.732Z,94.10
2022-11-27T05:43:07.285Z,94.10
2022-11-27T05:45:33.863Z,94.10
2022-11-27T05:48:00.686Z,94.30
2022-11-27T05:50:27.316Z,94.10
2022-11-27T05:52:53.892Z,94.40
2022-11-27T05:55:20.427Z,94.40
2022-11-27T05:57:46.989Z,94.20
2022-11-27T06:00:14.161Z,93.90
2022-11-27T06:02:40.805Z,93.80
2022-11-27T06:05:07.797Z,94.00
2022-11-27T06:07:34.364Z,94.10
2022-11-27T06:10:01.077Z,94.10
2022-11-27T06:12:27.639Z,94.10
2022-11-27T06:14:54.220Z,94.30
2022-11-27T06:17:20.786Z,94.50
2022-11-27T06:19:47.541Z,94.80
2022-11-27T06:22:14.113Z,94.90
2022-11-27T06:24:40.994Z,95.10
2022-11-27T06:27:07.788Z,95.20
2022-11-27T06:29:34.351Z,95.60
2022-11-27T06:32:00.952Z,95.50
2022-11-27T06:34:27.830Z,95.70
2022-11-27T06:36:54.356Z,95.70
2022-11-27T06:39:20.918Z,95.70
2022-11-27T06:41:47.464Z,95.70
2022-11-27T06:44:14.021Z,95.80
2022-11-27T06:46:40.551Z,95.70
2022-11-27T06:49:07.176Z,95.70
2022-11-27T06:51:33.776Z,95.70
2022-11-27T06:54:00.735Z,96.00
2022-11-27T06:56:28.794Z,96.30
2022-11-27T06:58:56.659Z,96.80
2022-11-27T07:01:24.256Z,96.80
2022-11-27T07:03:51.034Z,97.00
2022-11-27T07:06:19.004Z,97.40
2022-11-27T07:08:45.855Z,97.40
2022-11-27T07:11:18.176Z,97.60
2022-11-27T07:13:47.266Z,97.60
2022-11-27T07:16:14.312Z,97.80
2022-11-27T07:18:42.143Z,97.90
2022-11-27T07:21:09.155Z,97.80
2022-11-27T07:23:35.924Z,97.90
2022-11-27T07:26:06.301Z,97.90
2022-11-27T07:28:32.882Z,98.00
2022-11-27T07:30:59.652Z,98.00
2022-11-27T07:33:26.306Z,98.10
2022-11-27T07:36:19.302Z,98.00
2022-11-27T07:38:45.863Z,98.10
2022-11-27T07:41:13.213Z,98.10
2022-11-27T07:43:40.185Z,98.00
2022-11-27T07:46:07.688Z,98.10
2022-11-27T07:48:34.465Z,97.90
2022-11-27T07:51:01.340Z,98.00
2022-11-27T07:53:27.870Z,98.00
2022-11-27T07:55:54.433Z,98.10
2022-11-27T07:58:20.933Z,97.70
2022-11-27T08:00:48.415Z,97.70
2022-11-27T08:03:16.510Z,97.70
2022-11-27T08:05:43.076Z,97.80
2022-11-27T08:08:09.674Z,97.80
2022-11-27T08:10:37.019Z,97.80
2022-11-27T08:13:03.968Z,97.80
2022-11-27T08:15:30.494Z,97.80
2022-11-27T08:17:57.087Z,97.60
2022-11-27T08:20:23.752Z,97.00
2022-11-27T08:22:50.328Z,96.40
2022-11-27T08:25:17.041Z,96.60
2022-11-27T08:27:43.759Z,96.20
2022-11-27T08:30:10.727Z,96.40
2022-11-27T08:32:41.278Z,96.60
2022-11-27T08:35:08.206Z,96.30
2022-11-27T08:37:34.977Z,95.70
2022-11-27T08:40:01.890Z,95.10
2022-11-27T08:42:28.524Z,95.00
2022-11-27T08:44:55.149Z,95.00
2022-11-27T08:47:21.673Z,94.60
2022-11-27T08:49:48.638Z,94.30
2022-11-27T08:52:15.216Z,94.60
2022-11-27T08:54:42.114Z,95.10
2022-11-27T08:57:08.872Z,94.70
2022-11-27T08:59:35.383Z,94.70
2022-11-27T09:02:01.929Z,93.10
2022-11-27T09:04:28.831Z,91.00
2022-11-27T09:06:58.722Z,91.00
2022-11-27T09:09:25.511Z,91.30
2022-11-27T09:11:54.078Z,91.60
2022-11-27T09:14:20.715Z,91.40
2022-11-27T09:16:47.444Z,91.30
2022-11-27T09:19:14.037Z,91.30
2022-11-27T09:21:40.664Z,91.30
2022-11-27T09:24:07.487Z,91.10
2022-11-27T09:26:34.050Z,91.30
2022-11-27T09:29:00.626Z,91.30
2022-11-27T09:31:27.600Z,91.20
2022-11-27T09:33:54.399Z,91.40
2022-11-27T09:36:22.353Z,91.40
2022-11-27T09:38:49.018Z,91.40
2022-11-27T09:41:36.582Z,91.10
2022-11-27T09:44:06.508Z,91.30
2022-11-27T09:46:35.831Z,91.40
2022-11-27T09:49:05.117Z,91.40
2022-11-27T09:51:34.129Z,91.60
2022-11-27T09:54:12.053Z,91.40
2022-11-27T09:56:39.272Z,91.40
2022-11-27T09:59:11.725Z,91.90
2022-11-27T10:01:45.309Z,91.60
2022-11-27T10:04:17.541Z,91.10
2022-11-27T10:06:59.371Z,90.60
2022-11-27T10:09:55.537Z,89.70
2022-11-27T10:12:33.210Z,89.60
2022-11-27T10:15:09.050Z,89.60
2022-11-27T10:17:38.810Z,89.70
2022-11-27T10:20:08.387Z,89.70
2022-11-27T10:22:53.776Z,87.60
2022-11-27T10:25:38.678Z,87.00
2022-11-27T10:28:23.988Z,85.80
2022-11-27T10:30:53.132Z,87.30
2022-11-27T10:33:22.472Z,86.00
2022-11-27T10:35:49.699Z,84.40
2022-11-27T10:38:21.459Z,83.20
2022-11-27T10:40:59.936Z,82.10
2022-11-27T10:43:26.554Z,81.30
2022-11-27T10:46:04.596Z,82.20
2022-11-27T10:48:32.566Z,79.00
2022-11-27T10:51:00.278Z,79.20
2022-11-27T10:53:31.476Z,80.50
2022-11-27T10:56:19.075Z,78.90
2022-11-27T10:58:50.845Z,78.00
2022-11-27T11:01:19.129Z,77.20
2022-11-27T11:03:46.164Z,77.40
2022-11-27T11:06:21.160Z,77.00
2022-11-27T11:08:49.557Z,74.10
2022-11-27T11:11:24.807Z,75.40
2022-11-27T11:13:51.474Z,76.10
2022-11-27T11:16:24.413Z,75.70
2022-11-27T11:18:52.338Z,74.30
2022-11-27T11:21:22.557Z,75.80
2022-11-27T11:24:03.321Z,78.00
2022-11-27T11:26:31.905Z,76.30
2022-11-27T11:28:59.485Z,76.70
2022-11-27T11:31:31.084Z,75.60
2022-11-27T11:34:02.599Z,76.10
2022-11-27T11:36:29.824Z,77.10
2022-11-27T11:38:56.859Z,76.40
2022-11-27T11:41:24.409Z,75.50
2022-11-27T11:43:55.091Z,74.30
2022-11-27T11:46:23.864Z,74.30
2022-11-27T11:48:54.320Z,72.90
2022-11-27T11:51:29.519Z,72.00
2022-11-27T11:54:19.424Z,73.30
2022-11-27T11:56:49.573Z,72.00
2022-11-27T11:59:32.799Z,72.10
2022-11-27T12:02:18.085Z,71.70
2022-11-27T12:04:59.983Z,72.00
2022-11-27T12:07:35.173Z,70.30
2022-11-27T12:10:11.143Z,69.10
2022-11-27T12:12:55.996Z,69.90
2022-11-27T12:15:29.173Z,69.70
2022-11-27T12:17:58.826Z,69.40
2022-11-27T12:20:25.386Z,69.30
2022-11-27T12:22:57.011Z,67.00
2022-11-27T12:25:37.785Z,66.90
2022-11-27T12:28:16.192Z,67.40
2022-11-27T12:30:50.586Z,67.60
2022-11-27T12:33:35.508Z,69.30
2022-11-27T12:36:11.246Z,66.50
2022-11-27T12:38:42.459Z,67.90
2022-11-27T12:41:09.023Z,66.20
2022-11-27T12:43:38.307Z,66.30
2022-11-27T12:46:19.867Z,66.30
2022-11-27T12:48:50.520Z,66.30
2022-11-27T12:51:31.776Z,66.30
2022-11-27T12:54:03.604Z,66.30
2022-11-27T12:56:37.407Z,66.30
2022-11-27T12:59:15.952Z,65.20
2022-11-27T13:01:45.377Z,66.40
2022-11-27T13:04:22.122Z,64.00
2022-11-27T13:06:57.904Z,63.10
2022-11-27T13:09:28.005Z,62.00
2022-11-27T13:11:55.342Z,66.10
2022-11-27T13:14:23.977Z,65.40
2022-11-27T13:16:52.825Z,65.30
2022-11-27T13:19:24.981Z,63.60
2022-11-27T13:21:53.012Z,63.50
2022-11-27T13:24:20.283Z,62.80
2022-11-27T13:26:52.025Z,63.30
2022-11-27T13:29:26.987Z,64.20
2022-11-27T13:31:55.603Z,63.80
2022-11-27T13:34:24.640Z,66.60
2022-11-27T13:36:59.142Z,66.50
2022-11-27T13:39:28.730Z,66.60
2022-11-27T13:42:07.653Z,66.70
2022-11-27T13:44:37.032Z,66.70
2022-11-27T13:47:09.246Z,63.50
2022-11-27T13:49:37.844Z,63.90
2022-11-27T13:52:09.624Z,66.50
2022-11-27T13:54:36.502Z,66.60
2022-11-27T13:57:14.391Z,65.40
2022-11-27T13:59:41.665Z,66.70
2022-11-27T14:02:11.126Z,66.60
2022-11-27T14:04:50.593Z,66.40
2022-11-27T14:07:21.389Z,66.60
2022-11-27T14:09:49.791Z,65.40
2022-11-27T14:12:18.071Z,66.60
2022-11-27T14:14:45.288Z,66.70
2022-11-27T14:17:23.633Z,66.60
2022-11-27T14:19:58.665Z,66.60
2022-11-27T14:23:07.083Z,65.20
2022-11-27T14:25:29.377Z,66.10
2022-11-27T14:28:11.350Z,65.80
2022-11-27T14:30:40.974Z,66.00
2022-11-27T14:33:16.846Z,66.60
2022-11-27T14:35:47.803Z,66.50
2022-11-27T14:38:15.328Z,66.50
2022-11-27T14:40:41.957Z,66.50
2022-11-27T14:43:09.642Z,66.40
2022-11-27T14:45:36.568Z,66.50
2022-11-27T14:48:03.626Z,66.50
2022-11-27T14:50:30.179Z,66.50
2022-11-27T14:52:56.973Z,66.50
2022-11-27T14:55:23.751Z,66.40
2022-11-27T14:57:50.817Z,66.50
2022-11-27T15:00:24.164Z,66.40
2022-11-27T15:02:51.296Z,66.30
2022-11-27T15:05:22.688Z,66.30
2022-11-27T15:07:51.177Z,66.40
2022-11-27T15:10:21.954Z,66.30
2022-11-27T15:12:49.209Z,66.30
2022-11-27T15:15:18.295Z,66.90
2022-11-27T15:17:46.409Z,67.50
2022-11-27T15:20:14.939Z,68.30
2022-11-27T15:22:51.484Z,68.90
2022-11-27T15:25:34.350Z,68.50
2022-11-27T15:28:01.165Z,69.00
2022-11-27T15:30:28.081Z,68.00
2022-11-27T15:32:55.777Z,66.80
2022-11-27T15:35:22.325Z,66.10
2022-11-27T15:37:48.944Z,66.10
2022-11-27T15:40:24.381Z,66.10
2022-11-27T15:42:50.892Z,66.80
2022-11-27T15:45:17.424Z,66.00
2022-11-27T15:47:44.404Z,66.00
2022-11-27T15:50:14.274Z,66.00
2022-11-27T15:52:41.012Z,66.00
2022-11-27T15:55:07.915Z,68.50
2022-11-27T15:57:34.469Z,63.60
2022-11-27T16:00:01.070Z,63.30
2022-11-27T16:02:30.300Z,65.20
2022-11-27T16:04:56.932Z,66.00
2022-11-27T16:07:23.581Z,66.00
2022-11-27T16:09:50.110Z,68.50
2022-11-27T16:12:16.695Z,69.10
2022-11-27T16:14:43.451Z,69.80
2022-11-27T16:17:10.275Z,70.10
2022-11-27T16:19:36.840Z,70.10
2022-11-27T16:22:03.601Z,70.10
2022-11-27T16:24:30.156Z,70.10
2022-11-27T16:26:56.770Z,70.40
2022-11-27T16:29:23.306Z,69.40
2022-11-27T16:31:50.087Z,67.90
2022-11-27T16:34:16.938Z,66.50
2022-11-27T16:36:43.773Z,66.50
2022-11-27T16:39:11.158Z,65.80
2022-11-27T16:41:37.851Z,65.80
2022-11-27T16:44:09.883Z,65.70
2022-11-27T16:46:38.689Z,67.80
2022-11-27T16:49:06.477Z,69.10
2022-11-27T16:51:34.006Z,69.50
2022-11-27T16:54:04.699Z,69.30
2022-11-27T16:56:32.230Z,68.50
2022-11-27T16:59:02.681Z,68.20
2022-11-27T17:01:30.794Z,69.30
2022-11-27T17:03:57.883Z,67.60
2022-11-27T17:06:28.725Z,68.50
2022-11-27T17:08:56.001Z,68.60
2022-11-27T17:11:24.819Z,70.40
2022-11-27T17:13:51.953Z,69.90
2022-11-27T17:16:19.059Z,70.00
2022-11-27T17:18:45.807Z,70.60
2022-11-27T17:21:14.750Z,70.10
2022-11-27T17:23:46.602Z,71.10
2022-11-27T17:26:14.205Z,71.10
2022-11-27T17:28:40.790Z,71.80
2022-11-27T17:31:26.787Z,71.90
2022-11-27T17:33:54.341Z,70.70
2022-11-27T17:36:20.969Z,69.10
2022-11-27T17:38:47.536Z,68.30
2022-11-27T17:41:14.855Z,68.60
2022-11-27T17:43:41.942Z,66.90
2022-11-27T17:46:30.579Z,67.10
2022-11-27T17:48:59.002Z,67.00
2022-11-27T17:51:26.327Z,67.30
2022-11-27T17:53:52.885Z,68.00
2022-11-27T17:56:20.438Z,67.80
2022-11-27T17:58:47.229Z,67.90
2022-11-27T18:01:23.987Z,67.60
2022-11-27T18:03:51.496Z,67.70
2022-11-27T18:06:19.012Z,68.20
2022-11-27T18:08:46.436Z,67.70
2022-11-27T18:11:14.659Z,68.10
2022-11-27T18:13:41.481Z,68.90
2022-11-27T18:16:13.277Z,69.70
2022-11-27T18:18:40.266Z,69.80
2022-11-27T18:21:08.679Z,69.20
2022-11-27T18:23:36.048Z,68.80
2022-11-27T18:26:06.062Z,67.80
2022-11-27T18:28:32.586Z,67.60
2022-11-27T18:31:03.781Z,68.20
2022-11-27T18:33:30.303Z,69.10
2022-11-27T18:35:56.968Z,68.70
2022-11-27T18:38:23.517Z,69.20
2022-11-27T18:40:50.046Z,69.10
2022-11-27T18:43:16.595Z,69.80
2022-11-27T18:45:43.688Z,69.70
2022-11-27T18:48:10.241Z,69.90
2022-11-27T18:50:36.854Z,71.10
2022-11-27T18:53:03.725Z,99.40
2022-11-27T18:55:34.712Z,88.90
2022-11-27T18:58:01.319Z,67.60
2022-11-27T19:00:27.885Z,65.40
2022-11-27T19:02:54.599Z,66.10
2022-11-27T19:05:21.424Z,66.00
2022-11-27T19:07:48.135Z,65.90
2022-11-27T19:10:14.896Z,65.80
2022-11-27T19:12:41.453Z,66.60
2022-11-27T19:15:08.382Z,67.40
2022-11-27T19:17:35.440Z,66.30
2022-11-27T19:20:01.996Z,65.70
2022-11-27T19:22:28.499Z,66.60
2022-11-27T19:24:55.030Z,67.10
2022-11-27T19:27:21.695Z,67.80
2022-11-27T19:29:48.937Z,68.00
2022-11-27T19:32:15.485Z,67.50
2022-11-27T19:34:42.293Z,68.20
2022-11-27T19:37:09.221Z,68.20
2022-11-27T19:39:35.792Z,68.20
2022-11-27T19:42:02.421Z,68.00
2022-11-27T19:44:29.024Z,67.50
2022-11-27T19:46:55.586Z,68.50
2022-11-27T19:49:22.681Z,69.10
2022-11-27T19:51:49.797Z,69.80
2022-11-27T19:54:19.060Z,69.80
2022-11-27T19:56:45.939Z,69.60
2022-11-27T19:59:12.693Z,68.80
2022-11-27T20:01:40.168Z,68.10
2022-11-27T20:04:07.732Z,67.90
2022-11-27T20:06:34.372Z,68.50
2022-11-27T20:09:02.372Z,68.90
2022-11-27T20:11:34.185Z,68.90
2022-11-27T20:14:02.437Z,68.70
2022-11-27T20:16:29.269Z,68.50
2022-11-27T20:18:55.884Z,67.80
2022-11-27T20:21:23.544Z,69.10
2022-11-27T20:23:50.854Z,69.20
2022-11-27T20:26:21.921Z,69.40
2022-11-27T20:28:48.859Z,70.30
2022-11-27T20:31:17.172Z,69.40
2022-11-27T20:33:43.877Z,68.40
2022-11-27T20:36:11.866Z,69.20
2022-11-27T20:38:38.969Z,69.10
2022-11-27T20:41:06.780Z,67.20
2022-11-27T20:43:33.301Z,67.30
2022-11-27T20:46:01.085Z,66.80
2022-11-27T20:48:28.039Z,65.40
2022-11-27T20:50:54.567Z,65.70
2022-11-27T20:53:21.142Z,65.40
2022-11-27T20:55:47.788Z,65.50
2022-11-27T20:58:14.302Z,65.40
2022-11-27T21:00:40.910Z,65.40
2022-11-27T21:03:07.514Z,65.90
2022-11-27T21:05:34.151Z,65.40
2022-11-27T21:08:00.960Z,65.40
2022-11-27T21:10:28.345Z,65.30
2022-11-27T21:12:55.024Z,65.40
2022-11-27T21:15:21.584Z,65.30
2022-11-27T21:17:48.136Z,66.60
2022-11-27T21:20:14.705Z,66.80
2022-11-27T21:22:43.902Z,67.30
2022-11-27T21:25:10.578Z,68.40
2022-11-27T21:27:37.412Z,70.40
2022-11-27T21:30:05.489Z,71.30
2022-11-27T21:32:32.044Z,71.60
2022-11-27T21:34:58.580Z,70.70
2022-11-27T21:37:25.166Z,71.10
2022-11-27T21:39:51.895Z,71.00
2022-11-27T21:42:18.499Z,72.20
2022-11-27T21:44:45.012Z,72.10
2022-11-27T21:47:11.942Z,71.20
2022-11-27T21:49:39.253Z,71.80
2022-11-27T21:52:06.413Z,71.40
2022-11-27T21:54:33.317Z,70.90
2022-11-27T21:56:59.888Z,71.40
2022-11-27T21:59:26.554Z,71.90
2022-11-27T22:01:53.264Z,71.10
2022-11-27T22:04:19.873Z,70.00
2022-11-27T22:06:47.021Z,71.20
2022-11-27T22:09:15.625Z,71.20
2022-11-27T22:11:43.545Z,71.40
2022-11-27T22:14:10.125Z,71.80
2022-11-27T22:16:44.403Z,71.40
2022-11-27T22:19:11.690Z,71.60
2022-11-27T22:21:38.229Z,72.20
2022-11-27T22:24:04.884Z,71.30
2022-11-27T22:26:31.391Z,70.50
2022-11-27T22:28:58.510Z,70.30
2022-11-27T22:31:35.391Z,71.20
2022-11-27T22:34:01.923Z,70.60
2022-11-27T22:36:33.001Z,69.70
2022-11-27T22:39:00.728Z,70.50
2022-11-27T22:41:28.080Z,69.50
2022-11-27T22:43:54.661Z,70.20
2022-11-27T22:46:22.482Z,70.50
2022-11-27T22:48:53.947Z,70.90
2022-11-27T22:51:20.829Z,71.60
2022-11-27T22:53:47.381Z,70.60
2022-11-27T22:56:14.091Z,70.10
2022-11-27T22:58:41.859Z,69.10
2022-11-27T23:01:09.494Z,69.50
2022-11-27T23:03:36.127Z,69.50
2022-11-27T23:06:03.946Z,70.00
2022-11-27T23:08:30.449Z,69.50
2022-11-27T23:10:56.968Z,68.80
2022-11-27T23:13:23.634Z,68.10
2022-11-27T23:15:50.170Z,67.80
2022-11-27T23:18:16.824Z,67.80
2022-11-27T23:20:43.703Z,67.90
2022-11-27T23:23:10.747Z,68.70
2022-11-27T23:25:37.793Z,69.30
2022-11-27T23:28:05.025Z,69.30
2022-11-27T23:30:32.518Z,69.40
2022-11-27T23:32:59.094Z,70.10
2022-11-27T23:35:25.737Z,70.30
2022-11-27T23:37:52.475Z,70.80
2022-11-27T23:40:20.003Z,71.30
2022-11-27T23:42:46.607Z,70.90
2022-11-27T23:45:13.159Z,71.10
2022-11-27T23:47:39.722Z,71.10
2022-11-27T23:50:06.823Z,70.50
2022-11-27T23:52:33.410Z,70.60
2022-11-27T23:54:59.953Z,70.70
2022-11-27T23:57:26.576Z,70.40
2022-11-27T23:59:53.118Z,71.40
